createdAt,value
2018-05-29T00:00:50.749Z,1009.85
2018-05-29T00:01:50.757Z,1009.88
2018-05-29T00:02:50.757Z,1009.89
2018-05-29T00:03:50.754Z,1009.93
2018-05-29T00:04:50.756Z,1009.88
2018-05-29T00:05:50.760Z,1009.91
2018-05-29T00:06:50.762Z,1009.89
2018-05-29T00:07:50.767Z,1009.93
2018-05-29T00:08:50.768Z,1009.86
2018-05-29T00:09:50.771Z,1009.91
2018-05-29T00:10:50.774Z,1009.92
2018-05-29T00:11:50.768Z,1009.91
2018-05-29T00:12:50.772Z,1009.93
2018-05-29T00:13:50.773Z,1009.92
2018-05-29T00:14:50.776Z,1009.87
2018-05-29T00:15:50.782Z,1009.92
2018-05-29T00:16:50.781Z,1009.91
2018-05-29T00:17:50.779Z,1009.91
2018-05-29T00:18:50.781Z,1009.85
2018-05-29T00:19:50.785Z,1009.85
2018-05-29T00:20:50.787Z,1009.87
2018-05-29T00:21:50.790Z,1009.86
2018-05-29T00:22:50.798Z,1009.84
2018-05-29T00:23:50.788Z,1009.87
2018-05-29T00:24:50.789Z,1009.87
2018-05-29T00:25:50.791Z,1009.90
2018-05-29T00:26:50.794Z,1009.84
2018-05-29T00:27:50.799Z,1009.87
2018-05-29T00:28:50.802Z,1009.86
2018-05-29T00:29:50.802Z,1009.90
2018-05-29T00:30:50.804Z,1009.84
2018-05-29T00:31:50.800Z,1009.81
2018-05-29T00:32:50.802Z,1009.82
2018-05-29T00:33:50.811Z,1009.78
2018-05-29T00:34:50.815Z,1009.82
2018-05-29T00:35:50.806Z,1009.78
2018-05-29T00:36:50.808Z,1009.78
2018-05-29T00:37:50.861Z,1009.82
2018-05-29T00:38:50.812Z,1009.79
2018-05-29T00:39:50.818Z,1009.77
2018-05-29T00:40:50.819Z,1009.77
2018-05-29T00:41:50.821Z,1009.76
2018-05-29T00:42:50.825Z,1009.74
2018-05-29T00:43:50.819Z,1009.75
2018-05-29T00:44:50.823Z,1009.75
2018-05-29T00:45:50.822Z,1009.76
2018-05-29T00:46:50.824Z,1009.77
2018-05-29T00:47:50.829Z,1009.78
2018-05-29T00:48:50.830Z,1009.78
2018-05-29T00:49:50.828Z,1009.75
2018-05-29T00:50:50.830Z,1009.74
2018-05-29T00:51:50.839Z,1009.72
2018-05-29T00:52:50.841Z,1009.70
2018-05-29T00:53:50.840Z,1009.65
2018-05-29T00:54:50.841Z,1009.66
2018-05-29T00:55:50.836Z,1009.68
2018-05-29T00:56:50.837Z,1009.65
2018-05-29T00:57:50.839Z,1009.62
2018-05-29T00:58:50.841Z,1009.66
2018-05-29T00:59:50.846Z,1009.63
2018-05-29T01:00:50.848Z,1009.62
2018-05-29T01:01:50.851Z,1009.58
2018-05-29T01:02:50.851Z,1009.59
2018-05-29T01:03:50.848Z,1009.58
2018-05-29T01:04:50.849Z,1009.56
2018-05-29T01:05:50.855Z,1009.57
2018-05-29T01:06:50.857Z,1009.58
2018-05-29T01:07:50.854Z,1009.57
2018-05-29T01:08:50.855Z,1009.52
2018-05-29T01:09:50.856Z,1009.59
2018-05-29T01:10:50.864Z,1009.58
2018-05-29T01:11:50.863Z,1009.60
2018-05-29T01:12:50.864Z,1009.64
2018-05-29T01:13:50.866Z,1009.62
2018-05-29T01:14:50.867Z,1009.65
2018-05-29T01:15:50.863Z,1009.64
2018-05-29T01:16:50.865Z,1009.61
2018-05-29T01:17:50.867Z,1009.58
2018-05-29T01:18:50.868Z,1009.59
2018-05-29T01:19:50.874Z,1009.60
2018-05-29T01:20:50.875Z,1009.60
2018-05-29T01:21:50.872Z,1009.62
2018-05-29T01:22:50.874Z,1009.62
2018-05-29T01:23:50.880Z,1009.63
2018-05-29T01:24:50.885Z,1009.58
2018-05-29T01:25:50.881Z,1009.62
2018-05-29T01:26:50.887Z,1009.59
2018-05-29T01:27:50.884Z,1009.56
2018-05-29T01:28:50.880Z,1009.60
2018-05-29T01:29:50.881Z,1009.58
2018-05-29T01:30:50.884Z,1009.53
2018-05-29T01:31:50.889Z,1009.59
2018-05-29T01:32:50.893Z,1009.59
2018-05-29T01:33:50.891Z,1009.53
2018-05-29T01:34:50.894Z,1009.55
2018-05-29T01:35:50.890Z,1009.54
2018-05-29T01:36:50.894Z,1009.51
2018-05-29T01:37:50.897Z,1009.48
2018-05-29T01:38:50.898Z,1009.51
2018-05-29T01:39:50.893Z,1009.48
2018-05-29T01:40:50.895Z,1009.46
2018-05-29T01:41:50.896Z,1009.45
2018-05-29T01:42:50.902Z,1009.44
2018-05-29T01:43:50.903Z,1009.38
2018-05-29T01:44:50.904Z,1009.42
2018-05-29T01:45:50.905Z,1009.39
2018-05-29T01:46:50.906Z,1009.44
2018-05-29T01:47:50.903Z,1009.44
2018-05-29T01:48:50.903Z,1009.45
2018-05-29T01:49:50.906Z,1009.44
2018-05-29T01:50:50.909Z,1009.46
2018-05-29T01:51:50.911Z,1009.43
2018-05-29T01:52:50.914Z,1009.44
2018-05-29T01:53:50.910Z,1009.37
2018-05-29T01:54:50.910Z,1009.36
2018-05-29T01:55:50.915Z,1009.37
2018-05-29T01:56:50.917Z,1009.34
2018-05-29T01:57:50.918Z,1009.34
2018-05-29T01:58:50.926Z,1009.28
2018-05-29T01:59:50.915Z,1009.28
2018-05-29T02:00:50.917Z,1009.31
2018-05-29T02:01:50.918Z,1009.32
2018-05-29T02:02:50.920Z,1009.30
2018-05-29T02:03:50.925Z,1009.27
2018-05-29T02:04:50.926Z,1009.27
2018-05-29T02:05:50.926Z,1009.28
2018-05-29T02:06:50.927Z,1009.25
2018-05-29T02:07:50.923Z,1009.20
2018-05-29T02:08:50.925Z,1009.20
2018-05-29T02:09:50.935Z,1009.20
2018-05-29T02:10:50.932Z,1009.19
2018-05-29T02:11:50.928Z,1009.17
2018-05-29T02:12:50.929Z,1009.20
2018-05-29T02:13:50.931Z,1009.16
2018-05-29T02:14:50.932Z,1009.17
2018-05-29T02:15:50.936Z,1009.20
2018-05-29T02:16:50.938Z,1009.18
2018-05-29T02:17:50.939Z,1009.13
2018-05-29T02:18:50.953Z,1009.11
2018-05-29T02:19:50.939Z,1009.15
2018-05-29T02:20:50.940Z,1009.14
2018-05-29T02:21:50.937Z,1009.15
2018-05-29T02:22:50.938Z,1009.14
2018-05-29T02:23:50.943Z,1009.14
2018-05-29T02:24:50.947Z,1009.13
2018-05-29T02:25:50.945Z,1009.11
2018-05-29T02:26:50.942Z,1009.16
2018-05-29T02:27:50.946Z,1009.10
2018-05-29T02:28:50.947Z,1009.08
2018-05-29T02:29:50.951Z,1009.07
2018-05-29T02:30:50.951Z,1009.09
2018-05-29T02:31:50.946Z,1009.04
2018-05-29T02:32:50.958Z,1009.04
2018-05-29T02:33:50.949Z,1009.02
2018-05-29T02:34:50.950Z,1009.03
2018-05-29T02:35:50.956Z,1009.06
2018-05-29T02:36:50.956Z,1009.05
2018-05-29T02:37:50.956Z,1009.05
2018-05-29T02:38:50.958Z,1009.04
2018-05-29T02:39:50.953Z,1009.04
2018-05-29T02:40:50.953Z,1009.04
2018-05-29T02:41:50.960Z,1009.06
2018-05-29T02:42:50.961Z,1009.08
2018-05-29T02:43:50.957Z,1009.10
2018-05-29T02:44:50.958Z,1009.07
2018-05-29T02:45:50.962Z,1009.09
2018-05-29T02:46:50.963Z,1009.07
2018-05-29T02:47:50.965Z,1009.08
2018-05-29T02:48:50.969Z,1009.05
2018-05-29T02:49:50.968Z,1009.02
2018-05-29T02:50:50.969Z,1009.01
2018-05-29T02:51:50.963Z,1009.01
2018-05-29T02:52:50.964Z,1009.01
2018-05-29T02:53:50.966Z,1008.99
2018-05-29T02:54:50.966Z,1009.01
2018-05-29T02:55:50.970Z,1009.02
2018-05-29T02:56:50.971Z,1008.97
2018-05-29T02:57:50.968Z,1008.96
2018-05-29T02:58:50.969Z,1008.99
2018-05-29T02:59:50.973Z,1009.00
2018-05-29T03:00:50.974Z,1008.97
2018-05-29T03:01:50.981Z,1008.99
2018-05-29T03:02:50.978Z,1008.96
2018-05-29T03:03:50.972Z,1009.01
2018-05-29T03:04:50.975Z,1008.99
2018-05-29T03:05:50.978Z,1008.98
2018-05-29T03:06:50.979Z,1008.95
2018-05-29T03:07:50.976Z,1008.97
2018-05-29T03:08:50.975Z,1008.99
2018-05-29T03:09:50.976Z,1008.97
2018-05-29T03:10:50.978Z,1008.96
2018-05-29T03:11:50.983Z,1008.96
2018-05-29T03:12:50.984Z,1008.96
2018-05-29T03:13:50.980Z,1008.92
2018-05-29T03:14:50.980Z,1008.88
2018-05-29T03:15:50.986Z,1008.88
2018-05-29T03:16:50.986Z,1008.98
2018-05-29T03:17:50.986Z,1008.95
2018-05-29T03:18:50.988Z,1008.95
2018-05-29T03:19:50.982Z,1008.97
2018-05-29T03:20:51.002Z,1008.97
2018-05-29T03:21:50.985Z,1008.95
2018-05-29T03:22:50.986Z,1008.95
2018-05-29T03:23:50.990Z,1008.92
2018-05-29T03:24:50.992Z,1008.89
2018-05-29T03:25:50.992Z,1008.92
2018-05-29T03:26:50.993Z,1008.94
2018-05-29T03:27:50.987Z,1008.93
2018-05-29T03:28:50.996Z,1008.90
2018-05-29T03:29:50.995Z,1008.90
2018-05-29T03:30:50.995Z,1008.91
2018-05-29T03:31:50.990Z,1008.88
2018-05-29T03:32:50.990Z,1008.90
2018-05-29T03:33:50.990Z,1008.92
2018-05-29T03:34:50.992Z,1008.91
2018-05-29T03:35:50.996Z,1008.92
2018-05-29T03:36:50.997Z,1008.90
2018-05-29T03:37:50.999Z,1008.93
2018-05-29T03:38:50.998Z,1008.91
2018-05-29T03:39:50.995Z,1008.90
2018-05-29T03:40:50.994Z,1008.96
2018-05-29T03:41:50.995Z,1008.91
2018-05-29T03:42:50.996Z,1008.92
2018-05-29T03:43:51.000Z,1008.92
2018-05-29T03:44:51.002Z,1008.94
2018-05-29T03:45:50.997Z,1008.85
2018-05-29T03:46:50.998Z,1008.87
2018-05-29T03:47:51.003Z,1008.89
2018-05-29T03:48:51.003Z,1008.91
2018-05-29T03:49:51.003Z,1008.84
2018-05-29T03:50:51.005Z,1008.84
2018-05-29T03:51:50.999Z,1008.86
2018-05-29T03:52:51.000Z,1008.83
2018-05-29T03:53:51.001Z,1008.81
2018-05-29T03:54:51.001Z,1008.87
2018-05-29T03:55:51.005Z,1008.88
2018-05-29T03:56:51.006Z,1008.90
2018-05-29T03:57:51.008Z,1008.87
2018-05-29T03:58:51.007Z,1008.91
2018-05-29T03:59:51.003Z,1008.94
2018-05-29T04:00:51.004Z,1008.92
2018-05-29T04:01:51.019Z,1008.90
2018-05-29T04:02:51.011Z,1008.92
2018-05-29T04:03:51.006Z,1008.94
2018-05-29T04:04:51.005Z,1008.91
2018-05-29T04:05:51.006Z,1008.90
2018-05-29T04:06:51.008Z,1008.94
2018-05-29T04:07:51.010Z,1008.92
2018-05-29T04:08:51.016Z,1008.95
2018-05-29T04:09:51.015Z,1008.91
2018-05-29T04:10:51.014Z,1008.88
2018-05-29T04:11:51.008Z,1008.95
2018-05-29T04:12:51.010Z,1008.86
2018-05-29T04:13:51.010Z,1008.91
2018-05-29T04:14:51.013Z,1008.92
2018-05-29T04:15:51.088Z,1008.96
2018-05-29T04:16:51.015Z,1008.95
2018-05-29T04:17:51.011Z,1008.94
2018-05-29T04:18:51.012Z,1008.98
2018-05-29T04:19:51.016Z,1008.99
2018-05-29T04:20:51.017Z,1009.02
2018-05-29T04:21:51.019Z,1008.98
2018-05-29T04:22:51.019Z,1009.01
2018-05-29T04:23:51.014Z,1009.07
2018-05-29T04:24:51.015Z,1009.05
2018-05-29T04:25:51.015Z,1009.08
2018-05-29T04:26:51.016Z,1009.08
2018-05-29T04:27:51.021Z,1009.08
2018-05-29T04:28:51.024Z,1009.10
2018-05-29T04:29:51.022Z,1009.12
2018-05-29T04:30:51.023Z,1009.15
2018-05-29T04:31:51.019Z,1009.09
2018-05-29T04:32:51.020Z,1009.11
2018-05-29T04:33:51.026Z,1009.11
2018-05-29T04:34:51.026Z,1009.14
2018-05-29T04:35:51.021Z,1009.09
2018-05-29T04:36:51.022Z,1009.11
2018-05-29T04:37:51.023Z,1009.09
2018-05-29T04:38:51.025Z,1009.08
2018-05-29T04:39:51.029Z,1009.09
2018-05-29T04:40:51.030Z,1009.09
2018-05-29T04:41:51.033Z,1009.11
2018-05-29T04:42:51.033Z,1009.09
2018-05-29T04:43:51.027Z,1009.12
2018-05-29T04:44:51.029Z,1009.12
2018-05-29T04:45:51.029Z,1009.16
2018-05-29T04:46:51.031Z,1009.19
2018-05-29T04:47:51.036Z,1009.24
2018-05-29T04:48:51.041Z,1009.24
2018-05-29T04:49:51.033Z,1009.32
2018-05-29T04:50:51.035Z,1009.35
2018-05-29T04:51:51.039Z,1009.42
2018-05-29T04:52:51.040Z,1009.43
2018-05-29T04:53:51.042Z,1009.42
2018-05-29T04:54:51.043Z,1009.44
2018-05-29T04:55:51.041Z,1009.43
2018-05-29T04:56:51.042Z,1009.35
2018-05-29T04:57:51.044Z,1009.35
2018-05-29T04:58:51.044Z,1009.34
2018-05-29T04:59:51.051Z,1009.38
2018-05-29T05:00:51.053Z,1009.36
2018-05-29T05:01:51.053Z,1009.35
2018-05-29T05:02:51.054Z,1009.35
2018-05-29T05:03:51.051Z,1009.29
2018-05-29T05:04:51.054Z,1009.34
2018-05-29T05:05:51.059Z,1009.28
2018-05-29T05:06:51.061Z,1009.32
2018-05-29T05:07:51.058Z,1009.30
2018-05-29T05:08:51.063Z,1009.29
2018-05-29T05:09:51.061Z,1009.28
2018-05-29T05:10:51.065Z,1009.25
2018-05-29T05:11:51.068Z,1009.27
2018-05-29T05:12:51.070Z,1009.31
2018-05-29T05:13:51.072Z,1009.34
2018-05-29T05:14:51.074Z,1009.32
2018-05-29T05:15:51.071Z,1009.29
2018-05-29T05:16:51.073Z,1009.33
2018-05-29T05:17:51.074Z,1009.35
2018-05-29T05:18:51.076Z,1009.36
2018-05-29T05:19:51.082Z,1009.30
2018-05-29T05:20:51.086Z,1009.33
2018-05-29T05:21:51.088Z,1009.31
2018-05-29T05:22:51.083Z,1009.35
2018-05-29T05:23:51.091Z,1009.40
2018-05-29T05:24:51.092Z,1009.78
2018-05-29T05:25:51.093Z,1009.78
2018-05-29T05:26:51.096Z,1009.88
2018-05-29T05:27:51.093Z,1009.92
2018-05-29T05:28:51.094Z,1009.93
2018-05-29T05:29:51.097Z,1009.96
2018-05-29T05:30:51.099Z,1009.84
2018-05-29T05:31:51.109Z,1009.79
2018-05-29T05:32:51.109Z,1010.02
2018-05-29T05:33:51.113Z,1010.08
2018-05-29T05:34:51.120Z,1010.03
2018-05-29T05:35:51.113Z,1010.13
2018-05-29T05:36:51.117Z,1009.99
2018-05-29T05:37:51.126Z,1010.00
2018-05-29T05:38:51.130Z,1010.02
2018-05-29T05:39:51.130Z,1009.99
2018-05-29T05:40:51.132Z,1010.01
2018-05-29T05:41:51.145Z,1010.11
2018-05-29T05:42:51.142Z,1010.11
2018-05-29T05:43:51.152Z,1010.07
2018-05-29T05:44:51.156Z,1010.00
2018-05-29T05:45:51.161Z,1010.08
2018-05-29T05:46:51.166Z,1010.04
2018-05-29T05:47:51.166Z,1010.08
2018-05-29T05:48:51.172Z,1010.11
2018-05-29T05:49:51.179Z,1010.13
2018-05-29T05:50:51.185Z,1010.20
2018-05-29T05:51:51.194Z,1010.20
2018-05-29T05:52:51.200Z,1010.19
2018-05-29T05:53:51.200Z,1010.21
2018-05-29T05:54:51.207Z,1010.16
2018-05-29T05:55:51.219Z,1010.13
2018-05-29T05:56:51.223Z,1010.20
2018-05-29T05:57:51.227Z,1010.22
2018-05-29T05:58:51.234Z,1010.13
2018-05-29T05:59:51.235Z,1010.12
2018-05-29T06:00:51.241Z,1010.13
2018-05-29T06:01:51.249Z,1010.20
2018-05-29T06:02:51.255Z,1010.19
2018-05-29T06:03:51.266Z,1010.29
2018-05-29T06:04:51.272Z,1010.30
2018-05-29T06:05:51.281Z,1010.34
2018-05-29T06:06:51.289Z,1010.37
2018-05-29T06:07:51.290Z,1010.41
2018-05-29T06:08:51.297Z,1010.40
2018-05-29T06:09:51.310Z,1010.33
2018-05-29T06:10:51.318Z,1010.35
2018-05-29T06:11:51.319Z,1010.36
2018-05-29T06:12:51.327Z,1010.35
2018-05-29T06:13:51.336Z,1010.27
2018-05-29T06:14:51.344Z,1010.34
2018-05-29T06:15:51.356Z,1010.38
2018-05-29T06:16:51.367Z,1010.34
2018-05-29T06:17:51.375Z,1010.36
2018-05-29T06:18:51.383Z,1010.36
2018-05-29T06:19:51.388Z,1010.37
2018-05-29T06:20:51.397Z,1010.33
2018-05-29T06:21:51.404Z,1010.35
2018-05-29T06:22:51.413Z,1010.42
2018-05-29T06:23:51.426Z,1010.50
2018-05-29T06:24:51.436Z,1010.54
2018-05-29T06:25:51.439Z,1010.60
2018-05-29T06:26:51.448Z,1010.62
2018-05-29T06:27:51.461Z,1010.62
2018-05-29T06:28:51.471Z,1010.60
2018-05-29T06:29:51.483Z,1010.62
2018-05-29T06:30:51.494Z,1010.56
2018-05-29T06:31:51.493Z,1010.56
2018-05-29T06:32:51.514Z,1010.61
2018-05-29T06:33:51.512Z,1010.36
2018-05-29T06:34:51.523Z,1010.63
2018-05-29T06:35:51.539Z,1010.67
2018-05-29T06:36:51.545Z,1010.69
2018-05-29T06:37:51.555Z,1010.74
2018-05-29T06:38:51.565Z,1010.79
2018-05-29T06:39:51.569Z,1010.78
2018-05-29T06:40:51.580Z,1010.79
2018-05-29T06:41:51.594Z,1010.76
2018-05-29T06:42:51.606Z,1010.79
2018-05-29T06:43:51.610Z,1010.78
2018-05-29T06:44:51.688Z,1010.79
2018-05-29T06:45:51.632Z,1010.74
2018-05-29T06:46:51.642Z,1010.77
2018-05-29T06:47:51.657Z,1010.71
2018-05-29T06:48:51.667Z,1010.72
2018-05-29T06:49:51.680Z,1010.74
2018-05-29T06:50:51.692Z,1010.76
2018-05-29T06:51:51.697Z,1010.73
2018-05-29T06:52:51.711Z,1010.74
2018-05-29T06:53:51.721Z,1010.74
2018-05-29T06:54:51.731Z,1010.77
2018-05-29T06:55:51.746Z,1010.76
2018-05-29T06:56:51.758Z,1010.76
2018-05-29T06:57:51.868Z,1010.79
2018-05-29T06:58:51.778Z,1010.77
2018-05-29T06:59:51.793Z,1010.74
2018-05-29T07:00:51.806Z,1010.75
2018-05-29T07:01:51.820Z,1010.74
2018-05-29T07:02:51.839Z,1010.75
2018-05-29T07:03:51.883Z,1010.70
2018-05-29T07:04:51.853Z,1010.73
2018-05-29T07:05:51.867Z,1010.71
2018-05-29T07:06:51.879Z,1010.69
2018-05-29T07:07:51.897Z,1010.68
2018-05-29T07:08:51.911Z,1010.68
2018-05-29T07:09:51.925Z,1010.70
2018-05-29T07:10:51.938Z,1010.69
2018-05-29T07:11:51.946Z,1010.65
2018-05-29T07:12:51.962Z,1010.62
2018-05-29T07:13:51.978Z,1010.65
2018-05-29T07:14:51.994Z,1010.63
2018-05-29T07:15:52.002Z,1010.58
2018-05-29T07:16:52.016Z,1010.62
2018-05-29T07:17:52.030Z,1010.61
2018-05-29T07:18:52.048Z,1010.64
2018-05-29T07:19:52.070Z,1010.63
2018-05-29T07:20:52.077Z,1010.62
2018-05-29T07:21:52.092Z,1010.63
2018-05-29T07:22:52.108Z,1010.64
2018-05-29T07:23:52.116Z,1010.65
2018-05-29T07:24:52.131Z,1010.61
2018-05-29T07:25:52.146Z,1010.62
2018-05-29T07:26:52.161Z,1010.59
2018-05-29T07:27:52.183Z,1010.60
2018-05-29T07:28:52.196Z,1010.62
2018-05-29T07:29:52.207Z,1010.56
2018-05-29T07:30:52.226Z,1010.59
2018-05-29T07:31:52.240Z,1010.61
2018-05-29T07:32:52.256Z,1010.58
2018-05-29T07:33:52.273Z,1010.57
2018-05-29T07:34:52.288Z,1010.60
2018-05-29T07:35:52.297Z,1010.60
2018-05-29T07:36:52.313Z,1010.57
2018-05-29T07:37:52.329Z,1010.60
2018-05-29T07:38:52.365Z,1010.59
2018-05-29T07:39:52.366Z,1010.60
2018-05-29T07:40:52.381Z,1010.61
2018-05-29T07:41:52.397Z,1010.61
2018-05-29T07:42:52.415Z,1010.62
2018-05-29T07:43:52.424Z,1010.60
2018-05-29T07:44:52.441Z,1010.60
2018-05-29T07:45:52.462Z,1010.60
2018-05-29T07:46:52.478Z,1010.58
2018-05-29T07:47:52.495Z,1010.61
2018-05-29T07:48:52.508Z,1010.64
2018-05-29T07:49:52.524Z,1010.65
2018-05-29T07:50:52.540Z,1010.65
2018-05-29T07:51:52.578Z,1010.62
2018-05-29T07:52:52.579Z,1010.57
2018-05-29T07:53:52.598Z,1010.59
2018-05-29T07:54:52.616Z,1010.58
2018-05-29T07:55:52.635Z,1010.59
2018-05-29T07:56:52.643Z,1010.48
2018-05-29T07:57:52.660Z,1010.43
2018-05-29T07:58:52.725Z,1010.46
2018-05-29T07:59:52.700Z,1010.39
2018-05-29T08:00:52.767Z,1010.43
2018-05-29T08:01:52.731Z,1010.43
2018-05-29T08:02:52.748Z,1010.48
2018-05-29T08:03:52.772Z,1010.51
2018-05-29T08:04:52.788Z,1010.54
2018-05-29T08:05:52.806Z,1010.47
2018-05-29T08:06:52.825Z,1010.47
2018-05-29T08:07:52.836Z,1010.42
2018-05-29T08:08:52.854Z,1010.47
2018-05-29T08:09:52.877Z,1010.40
2018-05-29T08:10:52.891Z,1010.47
2018-05-29T08:11:52.912Z,1010.49
2018-05-29T08:12:52.931Z,1010.44
2018-05-29T08:13:52.948Z,1010.47
2018-05-29T08:14:52.967Z,1010.43
2018-05-29T08:15:52.980Z,1010.40
2018-05-29T08:16:53.002Z,1010.43
2018-05-29T08:17:53.025Z,1010.43
2018-05-29T08:18:53.039Z,1010.39
2018-05-29T08:19:53.052Z,1010.41
2018-05-29T08:20:53.069Z,1010.39
2018-05-29T08:21:53.089Z,1009.49
2018-05-29T08:22:53.107Z,1009.49
2018-05-29T08:23:53.129Z,1009.53
2018-05-29T08:24:53.149Z,1009.54
2018-05-29T08:25:53.166Z,1009.56
2018-05-29T08:26:53.185Z,1009.59
2018-05-29T08:27:53.199Z,1009.55
2018-05-29T08:28:53.217Z,1009.56
2018-05-29T08:29:53.236Z,1009.53
2018-05-29T08:30:53.261Z,1009.52
2018-05-29T08:31:53.279Z,1009.56
2018-05-29T08:32:53.301Z,1009.57
2018-05-29T08:33:53.313Z,1009.56
2018-05-29T08:34:53.339Z,1009.55
2018-05-29T08:35:53.362Z,1009.55
2018-05-29T08:36:53.378Z,1009.53
2018-05-29T08:37:53.401Z,1009.50
2018-05-29T08:38:53.421Z,1009.51
2018-05-29T08:39:53.433Z,1009.50
2018-05-29T08:40:53.454Z,1009.47
2018-05-29T08:41:53.475Z,1009.47
2018-05-29T08:42:53.495Z,1009.42
2018-05-29T08:43:53.520Z,1009.46
2018-05-29T08:44:53.541Z,1009.38
2018-05-29T08:45:53.563Z,1009.41
2018-05-29T08:46:53.622Z,1009.42
2018-05-29T08:47:53.605Z,1009.40
2018-05-29T08:48:53.623Z,1009.39
2018-05-29T08:49:53.653Z,1009.34
2018-05-29T08:50:53.669Z,1009.37
2018-05-29T08:51:53.685Z,1009.39
2018-05-29T08:52:53.711Z,1009.40
2018-05-29T08:53:53.729Z,1009.35
2018-05-29T08:54:53.752Z,1009.33
2018-05-29T08:55:53.777Z,1009.33
2018-05-29T08:56:53.800Z,1009.25
2018-05-29T08:57:53.822Z,1009.28
2018-05-29T08:58:53.844Z,1009.23
2018-05-29T08:59:53.861Z,1009.28
2018-05-29T09:00:53.883Z,1009.25
2018-05-29T09:01:53.905Z,1009.24
2018-05-29T09:02:53.934Z,1009.22
2018-05-29T09:03:53.958Z,1009.23
2018-05-29T09:04:53.977Z,1009.24
2018-05-29T09:05:53.995Z,1009.27
2018-05-29T09:06:54.019Z,1009.26
2018-05-29T09:07:54.045Z,1009.27
2018-05-29T09:08:54.066Z,1009.22
2018-05-29T09:09:54.089Z,1009.19
2018-05-29T09:10:54.112Z,1009.15
2018-05-29T09:11:54.190Z,1009.16
2018-05-29T09:12:54.154Z,1009.16
2018-05-29T09:13:54.176Z,1009.14
2018-05-29T09:14:54.200Z,1009.14
2018-05-29T09:15:54.226Z,1009.14
2018-05-29T09:16:54.251Z,1009.14
2018-05-29T09:17:54.275Z,1009.13
2018-05-29T09:18:54.298Z,1009.19
2018-05-29T09:19:54.383Z,1009.13
2018-05-29T09:20:54.339Z,1009.14
2018-05-29T09:21:54.371Z,1009.08
2018-05-29T09:22:54.394Z,1009.05
2018-05-29T09:23:54.413Z,1009.04
2018-05-29T09:24:54.440Z,1009.02
2018-05-29T09:25:54.463Z,1008.97
2018-05-29T09:26:54.486Z,1008.98
2018-05-29T09:27:54.516Z,1008.97
2018-05-29T09:28:54.531Z,1008.99
2018-05-29T09:29:54.584Z,1009.01
2018-05-29T09:30:54.581Z,1009.00
2018-05-29T09:31:54.605Z,1008.98
2018-05-29T09:32:54.619Z,1008.93
2018-05-29T09:33:54.651Z,1008.92
2018-05-29T09:34:54.665Z,1008.94
2018-05-29T09:35:54.690Z,1008.94
2018-05-29T09:36:54.713Z,1008.97
2018-05-29T09:37:54.732Z,1008.98
2018-05-29T09:38:54.759Z,1008.99
2018-05-29T09:39:54.781Z,1009.02
2018-05-29T09:40:54.804Z,1008.99
2018-05-29T09:41:54.827Z,1008.96
2018-05-29T09:42:54.850Z,1008.95
2018-05-29T09:43:54.867Z,1008.94
2018-05-29T09:44:54.889Z,1008.83
2018-05-29T09:45:55.011Z,1008.84
2018-05-29T09:46:54.940Z,1008.74
2018-05-29T09:47:54.967Z,1008.78
2018-05-29T09:48:54.986Z,1008.72
2018-05-29T09:49:55.008Z,1008.80
2018-05-29T09:50:55.030Z,1008.81
2018-05-29T09:51:55.048Z,1008.82
2018-05-29T09:52:55.094Z,1008.81
2018-05-29T09:53:55.097Z,1008.82
2018-05-29T09:54:55.119Z,1008.80
2018-05-29T09:55:55.139Z,1008.73
2018-05-29T09:56:55.172Z,1008.75
2018-05-29T09:57:55.179Z,1008.70
2018-05-29T09:58:55.203Z,1008.72
2018-05-29T09:59:55.227Z,1008.74
2018-05-29T10:00:55.249Z,1008.68
2018-05-29T10:01:55.269Z,1008.67
2018-05-29T10:02:55.292Z,1008.60
2018-05-29T10:03:55.307Z,1008.58
2018-05-29T10:04:55.329Z,1008.60
2018-05-29T10:05:55.349Z,1008.62
2018-05-29T10:06:55.422Z,1008.62
2018-05-29T10:07:55.395Z,1008.61
2018-05-29T10:08:55.417Z,1008.62
2018-05-29T10:09:55.433Z,1008.67
2018-05-29T10:10:55.454Z,1008.68
2018-05-29T10:11:55.478Z,1008.64
2018-05-29T10:12:55.500Z,1008.65
2018-05-29T10:13:55.520Z,1008.60
2018-05-29T10:14:55.542Z,1008.54
2018-05-29T10:15:55.557Z,1008.57
2018-05-29T10:16:55.579Z,1008.55
2018-05-29T10:17:55.603Z,1008.52
2018-05-29T10:18:55.621Z,1008.53
2018-05-29T10:19:55.648Z,1008.57
2018-05-29T10:20:55.669Z,1008.52
2018-05-29T10:21:55.691Z,1008.54
2018-05-29T10:22:55.713Z,1008.50
2018-05-29T10:23:55.730Z,1008.43
2018-05-29T10:24:55.752Z,1008.46
2018-05-29T10:25:55.787Z,1008.42
2018-05-29T10:26:55.854Z,1008.36
2018-05-29T10:27:55.818Z,1008.35
2018-05-29T10:28:55.841Z,1008.41
2018-05-29T10:29:55.866Z,1008.39
2018-05-29T10:30:55.960Z,1008.35
2018-05-29T10:31:55.913Z,1008.36
2018-05-29T10:32:55.936Z,1008.41
2018-05-29T10:33:55.958Z,1008.37
2018-05-29T10:34:55.981Z,1008.34
2018-05-29T10:35:55.999Z,1008.37
2018-05-29T10:36:56.021Z,1008.36
2018-05-29T10:37:56.044Z,1008.42
2018-05-29T10:38:56.066Z,1008.45
2018-05-29T10:39:56.092Z,1008.45
2018-05-29T10:40:56.116Z,1008.42
2018-05-29T10:41:56.134Z,1008.81
2018-05-29T10:42:56.155Z,1008.80
2018-05-29T10:43:56.182Z,1008.35
2018-05-29T10:44:56.204Z,1008.43
2018-05-29T10:45:56.236Z,1008.65
2018-05-29T10:46:56.249Z,1008.60
2018-05-29T10:47:56.264Z,1008.61
2018-05-29T10:48:56.286Z,1008.67
2018-05-29T10:49:56.307Z,1008.76
2018-05-29T10:50:56.334Z,1008.73
2018-05-29T10:51:56.354Z,1008.75
2018-05-29T10:52:56.375Z,1008.57
2018-05-29T10:53:56.399Z,1008.57
2018-05-29T10:54:56.417Z,1008.66
2018-05-29T10:55:56.437Z,1008.71
2018-05-29T10:56:56.454Z,1008.75
2018-05-29T10:57:56.480Z,1008.68
2018-05-29T10:58:56.501Z,1008.50
2018-05-29T10:59:56.517Z,1008.54
2018-05-29T11:00:56.537Z,1008.51
2018-05-29T11:01:56.557Z,1008.38
2018-05-29T11:02:56.581Z,1008.40
2018-05-29T11:03:56.602Z,1008.38
2018-05-29T11:04:56.625Z,1008.37
2018-05-29T11:05:56.643Z,1008.35
2018-05-29T11:06:56.708Z,1008.37
2018-05-29T11:07:56.677Z,1008.28
2018-05-29T11:08:56.698Z,1008.20
2018-05-29T11:09:56.722Z,1008.18
2018-05-29T11:10:56.737Z,1008.19
2018-05-29T11:11:56.762Z,1008.26
2018-05-29T11:12:56.783Z,1008.23
2018-05-29T11:13:56.794Z,1008.25
2018-05-29T11:14:56.812Z,1008.17
2018-05-29T11:15:56.838Z,1008.13
2018-05-29T11:16:56.854Z,1008.12
2018-05-29T11:17:56.872Z,1008.00
2018-05-29T11:18:56.892Z,1007.98
2018-05-29T11:19:56.904Z,1007.99
2018-05-29T11:20:56.924Z,1007.93
2018-05-29T11:21:56.941Z,1007.90
2018-05-29T11:22:56.960Z,1007.91
2018-05-29T11:23:56.981Z,1007.86
2018-05-29T11:24:56.997Z,1007.88
2018-05-29T11:25:57.016Z,1007.88
2018-05-29T11:26:57.033Z,1007.88
2018-05-29T11:27:57.045Z,1007.89
2018-05-29T11:28:57.060Z,1007.84
2018-05-29T11:29:57.085Z,1007.81
2018-05-29T11:30:57.099Z,1007.80
2018-05-29T11:31:57.108Z,1007.79
2018-05-29T11:32:57.132Z,1007.82
2018-05-29T11:33:57.140Z,1007.80
2018-05-29T11:34:57.156Z,1007.80
2018-05-29T11:35:57.174Z,1007.81
2018-05-29T11:36:57.190Z,1007.77
2018-05-29T11:37:57.208Z,1007.79
2018-05-29T11:38:57.223Z,1007.72
2018-05-29T11:39:57.232Z,1007.70
2018-05-29T11:40:57.249Z,1007.68
2018-05-29T11:41:57.261Z,1007.63
2018-05-29T11:42:57.276Z,1007.59
2018-05-29T11:43:57.294Z,1007.57
2018-05-29T11:44:57.308Z,1007.54
2018-05-29T11:45:57.320Z,1007.51
2018-05-29T11:46:57.334Z,1007.49
2018-05-29T11:47:57.352Z,1007.46
2018-05-29T11:48:57.367Z,1007.39
2018-05-29T11:49:57.381Z,1007.41
2018-05-29T11:50:57.397Z,1007.35
2018-05-29T11:51:57.407Z,1007.36
2018-05-29T11:52:57.419Z,1007.32
2018-05-29T11:53:57.433Z,1007.34
2018-05-29T11:54:57.554Z,1007.31
2018-05-29T11:55:57.468Z,1007.32
2018-05-29T11:56:57.479Z,1007.27
2018-05-29T11:57:57.493Z,1007.23
2018-05-29T11:58:57.506Z,1007.18
2018-05-29T11:59:57.514Z,1007.23
2018-05-29T12:00:57.528Z,1007.14
2018-05-29T12:01:57.545Z,1007.14
2018-05-29T12:02:57.559Z,1007.14
2018-05-29T12:03:57.567Z,1007.15
2018-05-29T12:04:57.580Z,1007.16
2018-05-29T12:05:57.594Z,1007.11